Latest Coastal Weather Observations for Arlington Reef

IDQ60701

Issued at 6:54 pm EST Tuesday 3 March 2015 (issued every 10 minutes, with the page automatically refreshed every 10 minutes)

About coastal observations | Map of coastal stations | Coastal observations for QLD | Marine services | Other Formats
Station Details ID: 200879 Name: ARLINGTON REEF Lat: -16.72 Lon: 146.11 Height: 0.0 m
Data from the previous 72 hours. | See also: Recent months at Arlington Reef
Date/Time
EST
Temp

°C
Wind Pressure Rain
since 9am
mm
Weather Cloud Vis
km
Sea
Height
m
Swell
Dir
 
Speed
knots
Gust
knots
hPa Trend Height
m
Period
s
Dir
03/06:30pm - SSE 16 21 1008.5 - - - - - - - - -
03/06:00pm - SSE 16 21 1008.3 - - - - - - - - -
03/05:30pm - SSE 14 17 1008.2 - - - - - - - - -
03/05:24pm - SSE 17 27 1008.3 - - - - - - - - -
03/05:00pm - SSE 19 22 1008.1 - - - - - - - - -
03/04:30pm - SSE 18 21 1007.7 - - - - - - - - -
03/04:00pm - SSE 15 18 1007.7 - - - - - - - - -
03/03:41pm - SSE 19 29 1007.7 - - - - - - - - -
03/03:30pm - SSE 18 23 1007.9 - - - - - - - - -
03/03:00pm - SSE 17 20 1008.2 - - - - - - - - -
03/02:30pm - SSE 20 24 1008.3 - - - - - - - - -
03/02:29pm - SSE 20 23 1008.3 - - - - - - - - -
03/02:12pm - SE 18 25 1008.9 - - - - - - - - -
03/02:00pm - SSE 20 25 1008.5 - - - - - - - - -
03/01:54pm - SE 16 23 1008.7 - - - - - - - - -
03/01:30pm - ESE 24 33 1008.6 - - - - - - - - -
03/01:23pm - SSE 20 31 1008.7 - - - - - - - - -
03/01:21pm - SSE 19 31 1008.7 - - - - - - - - -
03/01:00pm - SSE 17 21 1009.0 - - - - - - - - -
03/12:30pm - ESE 12 19 1009.7 - - - - - - - - -
03/12:00pm - SE 7 14 1010.1 - - - - - - - - -
03/11:30am - SSE 13 18 1010.3 - - - - - - - - -
03/11:00am - SE 16 19 1010.6 - - - - - - - - -
03/10:30am - SSE 14 17 1010.6 - - - - - - - - -
03/10:00am - SE 16 18 1010.7 - - - - - - - - -
03/09:30am - SSE 15 18 1010.5 - - - - - - - - -
03/09:00am - SE 16 18 1010.4 - - - - - - - - -
03/08:30am - SSE 16 19 1010.2 - - - - - - - - -
03/08:00am - SSE 16 19 1009.9 - - - - - - - - -
03/07:30am - SSE 14 17 1009.5 - - - - - - - - -
03/07:00am - SE 15 18 1009.1 - - - - - - - - -
03/06:30am - SSE 16 18 1008.7 - - - - - - - - -
03/06:00am - SSE 15 17 1008.5 - - - - - - - - -
03/05:30am - SE 15 17 1008.2 - - - - - - - - -
03/05:00am - SE 15 17 1007.8 - - - - - - - - -
03/04:30am - SE 15 17 1007.9 - - - - - - - - -
03/04:00am - SE 15 18 1007.8 - - - - - - - - -
03/03:30am - ESE 15 19 1007.8 - - - - - - - - -
03/03:00am - ESE 13 16 1007.9 - - - - - - - - -
03/02:30am - SE 9 12 1008.1 - - - - - - - - -
03/02:00am - SE 11 13 1008.5 - - - - - - - - -
03/01:30am - SE 10 12 1008.8 - - - - - - - - -
03/01:00am - SE 10 11 1009.2 - - - - - - - - -
03/12:30am - SE 11 14 1009.4 - - - - - - - - -
03/12:00am - SE 13 15 1009.6 - - - - - - - - -
 
Date/Time
EST
Temp

°C
Wind Pressure Rain
since 9am
mm
Weather Cloud Vis
km
Sea
Height
m
Swell
Dir
 
Speed
knots
Gust
knots
hPa Trend Height
m
Period
s
Dir
02/11:30pm - SE 12 14 1009.5 - - - - - - - - -
02/11:00pm - SE 11 13 1009.5 - - - - - - - - -
02/10:30pm - SE 8 10 1009.4 - - - - - - - - -
02/10:00pm - SE 6 9 1009.4 - - - - - - - - -
02/09:30pm - SE 7 8 1009.2 - - - - - - - - -
02/09:00pm - SE 7 9 1009.2 - - - - - - - - -
02/08:30pm - ESE 6 8 1008.8 - - - - - - - - -
02/08:00pm - ESE 8 10 1008.3 - - - - - - - - -
02/07:30pm - ESE 8 10 1008.0 - - - - - - - - -
02/07:00pm - ESE 8 9 1007.6 - - - - - - - - -
02/06:30pm - ESE 7 9 1007.4 - - - - - - - - -
02/06:00pm - SE 6 8 1007.3 - - - - - - - - -
02/05:30pm - ESE 7 8 1007.1 - - - - - - - - -
02/05:00pm - ESE 6 7 1006.8 - - - - - - - - -
02/04:30pm - ESE 6 7 1006.6 - - - - - - - - -
02/04:00pm - E 5 7 1006.6 - - - - - - - - -
02/03:30pm - E 6 7 1006.6 - - - - - - - - -
02/03:00pm - E 5 8 1006.7 - - - - - - - - -
02/02:30pm - E 4 6 1006.9 - - - - - - - - -
02/02:00pm - E 3 5 1007.4 - - - - - - - - -
02/01:30pm - ENE 2 4 1007.6 - - - - - - - - -
02/01:00pm - NE 1 3 1008.2 - - - - - - - - -
02/12:30pm - NE 2 4 1008.4 - - - - - - - - -
02/12:00pm - ENE 1 4 1008.7 - - - - - - - - -
02/11:30am - NNE 3 4 1009.1 - - - - - - - - -
02/11:00am - ENE 3 4 1009.2 - - - - - - - - -
02/10:30am - E 3 4 1009.5 - - - - - - - - -
02/10:00am - ESE 3 5 1009.5 - - - - - - - - -
02/09:30am - ESE 3 5 1009.5 - - - - - - - - -
02/09:00am - E 3 4 1009.3 - - - - - - - - -
02/08:30am - ESE 3 4 1009.1 - - - - - - - - -
02/08:00am - E 3 5 1008.9 - - - - - - - - -
02/07:30am - ENE 3 4 1008.6 - - - - - - - - -
02/07:00am - E 3 4 1008.5 - - - - - - - - -
02/06:30am - CALM 0 0 1008.1 - - - - - - - - -
02/06:00am - CALM 0 0 1007.7 - - - - - - - - -
02/05:30am - CALM 0 0 1007.6 - - - - - - - - -
02/05:00am - CALM 0 0 1007.4 - - - - - - - - -
02/04:30am - S 2 3 1007.3 - - - - - - - - -
02/04:00am - S 1 3 1007.2 - - - - - - - - -
02/03:30am - CALM 0 0 1007.1 - - - - - - - - -
02/03:00am - SSE 1 3 1007.3 - - - - - - - - -
02/02:30am - CALM 0 0 1007.5 - - - - - - - - -
02/02:00am - ENE 1 3 1008.0 - - - - - - - - -
02/01:30am - NE 2 4 1008.3 - - - - - - - - -
02/01:00am - NE 3 5 1008.7 - - - - - - - - -
02/12:30am - NE 3 5 1008.9 - - - - - - - - -
02/12:00am - NE 3 5 1009.3 - - - - - - - - -
 
Date/Time
EST
Temp

°C
Wind Pressure Rain
since 9am
mm
Weather Cloud Vis
km
Sea
Height
m
Swell
Dir
 
Speed
knots
Gust
knots
hPa Trend Height
m
Period
s
Dir
01/11:30pm - NE 5 7 1009.4 - - - - - - - - -
01/11:00pm - ENE 6 9 1009.5 - - - - - - - - -
01/10:30pm - NE 5 7 1009.5 - - - - - - - - -
01/10:00pm - ENE 6 9 1009.5 - - - - - - - - -
01/09:30pm - NE 7 9 1009.3 - - - - - - - - -
01/09:00pm - ENE 7 10 1009.0 - - - - - - - - -
01/08:30pm - ENE 8 9 1008.6 - - - - - - - - -
01/08:00pm - ENE 7 9 1008.2 - - - - - - - - -
01/07:30pm - ENE 8 10 1007.7 - - - - - - - - -
01/07:00pm - NE 8 9 1007.5 - - - - - - - - -
01/06:30pm - NE 7 8 1007.3 - - - - - - - - -
01/06:00pm - NE 6 8 1007.1 - - - - - - - - -
01/05:30pm - ENE 6 8 1006.8 - - - - - - - - -
01/05:00pm - ENE 5 7 1006.7 - - - - - - - - -
01/04:30pm - ENE 5 7 1006.6 - - - - - - - - -
01/04:00pm - ENE 3 5 1006.6 - - - - - - - - -
01/03:30pm - NE 2 4 1006.8 - - - - - - - - -
01/03:00pm - E 1 3 1006.9 - - - - - - - - -
01/02:30pm - CALM 0 1 1007.2 - - - - - - - - -
01/02:00pm - NE 2 3 1007.5 - - - - - - - - -
01/01:30pm - CALM 0 0 1007.9 - - - - - - - - -
01/01:00pm - CALM 0 2 1008.1 - - - - - - - - -
01/12:30pm - ENE 1 3 1008.5 - - - - - - - - -
01/12:00pm - ENE 1 3 1008.6 - - - - - - - - -
01/11:30am - E 2 4 1008.8 - - - - - - - - -
01/11:00am - ENE 2 3 1009.1 - - - - - - - - -
01/10:30am - ENE 1 3 1009.2 - - - - - - - - -
01/10:00am - E 1 4 1009.1 - - - - - - - - -
01/09:30am - ESE 2 4 1009.1 - - - - - - - - -
01/09:00am - CALM 0 0 1008.9 - - - - - - - - -
01/08:30am - NE 3 5 1008.9 - - - - - - - - -
01/08:00am - ENE 5 6 1008.5 - - - - - - - - -
01/07:30am - ENE 4 5 1008.3 - - - - - - - - -
01/07:00am - E 3 4 1008.0 - - - - - - - - -
01/06:30am - ESE 3 4 1007.8 - - - - - - - - -
01/06:00am - ESE 3 4 1007.6 - - - - - - - - -
01/05:30am - E 2 3 1007.3 - - - - - - - - -
01/05:00am - NE 3 4 1007.0 - - - - - - - - -
01/04:30am - NE 2 3 1007.1 - - - - - - - - -
01/04:00am - E 2 4 1007.1 - - - - - - - - -
01/03:30am - NE 3 4 1006.9 - - - - - - - - -
01/03:00am - N 2 3 1007.0 - - - - - - - - -
01/02:30am - E 2 3 1007.2 - - - - - - - - -
01/02:00am - E 2 4 1007.5 - - - - - - - - -
01/01:30am - E 4 5 1007.8 - - - - - - - - -
01/01:00am - ENE 5 6 1008.2 - - - - - - - - -
01/12:30am - ENE 3 5 1008.6 - - - - - - - - -
01/12:00am - E 3 4 1008.9 - - - - - - - - -
 
Date/Time
EST
Temp

°C
Wind Pressure Rain
since 9am
mm
Weather Cloud Vis
km
Sea
Height
m
Swell
Dir
 
Speed
knots
Gust
knots
hPa Trend Height
m
Period
s
Dir
28/11:30pm - NE 3 5 1009.3 - - - - - - - - -
28/11:00pm - NE 2 4 1009.4 - - - - - - - - -
28/10:30pm - ENE 5 6 1009.3 - - - - - - - - -
28/10:00pm - E 6 8 1009.2 - - - - - - - - -
28/09:30pm - E 5 7 1008.9 - - - - - - - - -
28/09:00pm - ENE 6 7 1008.4 - - - - - - - - -
28/08:30pm - ENE 6 8 1008.0 - - - - - - - - -
28/08:00pm - ENE 6 9 1007.8 - - - - - - - - -
28/07:30pm - ENE 7 9 1007.4 - - - - - - - - -
28/07:00pm - E 8 9 1007.1 - - - - - - - - -

Other Formats:

Comma delimited format used in spreadsheet applications
http://www.bom.gov.au/fwo/IDQ60701/IDQ60701.94284.axf

JavaScript Object Notation format (JSON) in row-major order
http://www.bom.gov.au/fwo/IDQ60701/IDQ60701.94284.json